Braunschweig Waggum, Germany

5:50 AM CEST on July 26, 2016 (GMT +0200)
Querum | | Change Station

Elev 233 ft 52.29 °N, 10.57 °E | Updated 4 minutes ago

Fog
Fog
66.2 °F
Feels Like 66.2 °F
N
0.0
Wind Variable Wind from North
Gusts 0.0 mph

Today
High -- | Low -- °F
--% Chance of Precip.
Yesterday
High -- | Low -- °F
Precip. -- in
Pressure 30.09 in
Visibility 5.0 miles
Clouds Few 8500 ft
Mostly Cloudy 10000 ft
Dew Point 63 °F
Humidity 89%
Rainfall 0.00 in
Snow Depth Not available.
5:29 AM 9:18 PM
Waning Gibbous, 59% visible
METAR ETHC 260320Z VRB01KT 8000 MIFG FEW085 BKN100 17/16 Q1019 BLU
Pressure 30.09 in
Visibility 5.0 miles
Clouds Few 8500 ft
Mostly Cloudy 10000 ft
Dew Point 63 °F
Humidity 89%
Rainfall 0.00 in
Snow Depth Not available.
5:29 AM 9:18 PM
Waning Gibbous, 59% visible
METAR ETHC 260320Z VRB01KT 8000 MIFG FEW085 BKN100 17/16 Q1019 BLU

10-Day Weather Forecast

×

Almanac

Astronomy

Jul. 26, 2016 Rise Set
Actual Time
Civil Twilight
Nautical Twilight
Astronomical Twilight
Moon
Length of Visible Light
Length of Day
Tomorrow will be .
, % of the Moon is Illuminated

Today's Extremes

Country Highs Country Lows

Community

WunderPhotos

Upload Photos

1,927,523 photos uploaded!

WunderBlog® & News

Nearby

Air Quality

  Air Quality AQ Index Pollutant
Not available.

Snow Depth

Station Depth Elevation

Earthquake Activity

City Distance Mag. Time & Date
Minimum magnitude displayed is 2.5.

Coastal Water Temperatures

Place Temperature

Stations

Nearby Weather Stations

Station Location Temp. Windchill Dew Point Humidity Wind Precip. Elev Updated Type